createdAt,value
2023-02-23T00:01:31.611Z,31.73
2023-02-23T00:04:05.548Z,34.58
2023-02-23T00:06:38.830Z,31.25
2023-02-23T00:09:23.308Z,29.15
2023-02-23T00:11:58.033Z,37.65
2023-02-23T00:14:32.517Z,34.42
2023-02-23T00:17:05.519Z,36.15
2023-02-23T00:19:38.444Z,32.90
2023-02-23T00:22:12.036Z,32.45
2023-02-23T00:24:47.394Z,40.30
2023-02-23T00:27:20.883Z,32.67
2023-02-23T00:29:55.297Z,32.72
2023-02-23T00:32:28.658Z,35.00
2023-02-23T00:35:01.970Z,38.08
2023-02-23T00:37:35.774Z,35.92
2023-02-23T00:40:13.050Z,35.88
2023-02-23T00:42:47.374Z,32.72
2023-02-23T00:45:21.590Z,39.38
2023-02-23T00:47:54.528Z,32.78
2023-02-23T00:50:29.671Z,35.17
2023-02-23T00:53:02.501Z,33.20
2023-02-23T00:55:35.395Z,33.00
2023-02-23T00:58:09.909Z,33.50
2023-02-23T01:00:44.281Z,37.83
2023-02-23T01:03:17.497Z,33.92
2023-02-23T01:05:51.032Z,37.00
2023-02-23T01:08:24.529Z,39.78
2023-02-23T01:10:57.656Z,34.70
2023-02-23T01:13:30.597Z,33.88
2023-02-23T01:16:07.438Z,31.50
2023-02-23T01:18:42.253Z,36.22
2023-02-23T01:21:17.122Z,36.95
2023-02-23T01:23:50.836Z,38.38
2023-02-23T01:26:25.481Z,39.58
2023-02-23T01:29:03.060Z,33.00
2023-02-23T01:31:39.012Z,38.40
2023-02-23T01:34:14.191Z,42.17
2023-02-23T01:36:47.146Z,37.58
2023-02-23T01:39:22.028Z,36.50
2023-02-23T01:41:55.013Z,38.60
2023-02-23T01:45:18.879Z,39.20
2023-02-23T01:47:55.957Z,39.22
2023-02-23T01:50:34.185Z,36.55
2023-02-23T01:53:07.634Z,34.38
2023-02-23T01:55:41.063Z,32.88
2023-02-23T01:58:19.698Z,36.08
2023-02-23T02:00:56.851Z,34.45
2023-02-23T02:03:36.571Z,39.30
2023-02-23T02:06:14.259Z,37.92
2023-02-23T02:08:50.827Z,40.85
2023-02-23T02:11:30.886Z,39.75
2023-02-23T02:14:12.885Z,39.78
2023-02-23T02:17:02.485Z,42.88
2023-02-23T02:20:12.834Z,42.08
2023-02-23T02:23:09.787Z,47.47
2023-02-23T02:26:03.808Z,41.10
2023-02-23T02:29:13.201Z,45.92
2023-02-23T02:32:14.176Z,49.35
2023-02-23T02:35:38.202Z,45.22
2023-02-23T02:38:27.082Z,43.95
2023-02-23T02:41:06.898Z,41.92
2023-02-23T02:43:51.236Z,43.33
2023-02-23T02:46:28.938Z,44.78
2023-02-23T02:49:08.013Z,46.90
2023-02-23T02:51:45.842Z,43.22
2023-02-23T02:54:26.832Z,48.78
2023-02-23T02:57:04.582Z,45.03
2023-02-23T03:00:02.544Z,44.50
2023-02-23T03:02:55.748Z,46.85
2023-02-23T03:05:53.089Z,41.80
2023-02-23T03:08:54.667Z,48.38
2023-02-23T03:11:54.945Z,50.53
2023-02-23T03:14:56.318Z,47.80
2023-02-23T03:17:56.422Z,42.13
2023-02-23T03:20:56.363Z,48.30
2023-02-23T03:23:59.015Z,43.63
2023-02-23T03:26:57.688Z,48.97
2023-02-23T03:29:55.639Z,40.90
2023-02-23T03:32:51.040Z,44.97
2023-02-23T03:35:46.437Z,44.15
2023-02-23T03:38:41.670Z,46.08
2023-02-23T03:41:36.683Z,45.10
2023-02-23T03:44:33.843Z,45.30
2023-02-23T03:47:26.793Z,47.17
2023-02-23T03:50:21.575Z,49.92
2023-02-23T03:53:17.017Z,48.30
2023-02-23T03:56:13.643Z,52.28
2023-02-23T03:59:08.946Z,43.65
2023-02-23T04:02:01.490Z,46.03
2023-02-23T04:04:53.443Z,42.92
2023-02-23T04:07:44.212Z,46.05
2023-02-23T04:10:35.289Z,50.40
2023-02-23T04:13:14.894Z,44.85
2023-02-23T04:15:52.974Z,47.43
2023-02-23T04:18:29.646Z,50.92
2023-02-23T04:21:03.585Z,47.10
2023-02-23T04:23:38.142Z,50.83
2023-02-23T04:26:10.984Z,50.33
2023-02-23T04:28:43.778Z,42.58
2023-02-23T04:31:19.075Z,52.15
2023-02-23T04:33:54.784Z,48.97
2023-02-23T04:36:28.350Z,49.53
2023-02-23T04:39:01.412Z,43.83
2023-02-23T04:41:34.365Z,38.25
2023-02-23T04:44:07.235Z,41.15
2023-02-23T04:46:40.295Z,43.75
2023-02-23T04:49:14.580Z,45.03
2023-02-23T04:51:47.725Z,47.08
2023-02-23T04:54:21.188Z,48.97
2023-02-23T04:56:54.170Z,42.60
2023-02-23T04:59:28.609Z,40.17
2023-02-23T05:02:01.491Z,40.33
2023-02-23T05:04:36.098Z,42.45
2023-02-23T05:07:09.560Z,47.13
2023-02-23T05:09:42.609Z,43.17
2023-02-23T05:12:15.559Z,44.53
2023-02-23T05:14:48.315Z,46.40
2023-02-23T05:17:21.237Z,46.55
2023-02-23T05:19:56.288Z,42.63
2023-02-23T05:22:29.175Z,46.88
2023-02-23T05:25:02.180Z,51.20
2023-02-23T05:27:35.265Z,51.60
2023-02-23T05:30:09.963Z,52.25
2023-02-23T05:32:42.874Z,51.75
2023-02-23T05:35:17.251Z,52.08
2023-02-23T05:37:50.094Z,55.05
2023-02-23T05:40:35.630Z,55.55
2023-02-23T05:43:35.549Z,47.95
2023-02-23T05:46:43.559Z,51.72
2023-02-23T05:49:25.068Z,46.72
2023-02-23T05:52:13.570Z,49.35
2023-02-23T05:54:55.315Z,58.15
2023-02-23T05:57:50.966Z,58.08
2023-02-23T06:00:24.462Z,54.08
2023-02-23T06:02:57.602Z,54.17
2023-02-23T06:05:30.428Z,54.00
2023-02-23T06:08:04.673Z,53.65
2023-02-23T06:10:37.997Z,57.25
2023-02-23T06:13:11.224Z,57.05
2023-02-23T06:15:44.831Z,50.28
2023-02-23T06:18:18.191Z,59.38
2023-02-23T06:20:51.041Z,55.28
2023-02-23T06:23:25.360Z,49.90
2023-02-23T06:25:59.569Z,55.25
2023-02-23T06:28:32.381Z,52.28
2023-02-23T06:31:06.847Z,48.22
2023-02-23T06:33:39.887Z,53.03
2023-02-23T06:36:14.164Z,43.75
2023-02-23T06:38:48.431Z,43.85
2023-02-23T06:41:21.494Z,47.47
2023-02-23T06:43:54.556Z,48.53
2023-02-23T06:46:27.419Z,45.35
2023-02-23T06:49:01.000Z,47.42
2023-02-23T06:51:33.937Z,52.80
2023-02-23T06:54:08.234Z,54.97
2023-02-23T06:56:41.121Z,53.20
2023-02-23T06:59:13.985Z,61.10
2023-02-23T07:01:47.340Z,59.60
2023-02-23T07:04:20.635Z,64.18
2023-02-23T07:06:54.278Z,60.90
2023-02-23T07:09:30.619Z,56.97
2023-02-23T07:12:04.404Z,55.20
2023-02-23T07:14:37.938Z,57.22
2023-02-23T07:17:12.564Z,50.55
2023-02-23T07:19:46.339Z,47.08
2023-02-23T07:22:19.470Z,52.22
2023-02-23T07:24:53.776Z,53.05
2023-02-23T07:27:27.655Z,52.88
2023-02-23T07:30:00.515Z,55.05
2023-02-23T07:32:33.471Z,54.50
2023-02-23T07:35:07.455Z,50.92
2023-02-23T07:37:40.230Z,56.70
2023-02-23T07:40:15.611Z,55.45
2023-02-23T07:42:48.489Z,54.63
2023-02-23T07:45:21.620Z,49.30
2023-02-23T07:47:54.376Z,50.33
2023-02-23T07:50:27.288Z,57.90
2023-02-23T07:53:00.538Z,51.72
2023-02-23T07:55:34.792Z,54.55
2023-02-23T07:58:07.811Z,58.83
2023-02-23T08:00:40.881Z,51.88
2023-02-23T08:03:13.960Z,53.83
2023-02-23T08:05:47.229Z,50.50
2023-02-23T08:08:20.623Z,47.97
2023-02-23T08:11:00.778Z,50.90
2023-02-23T08:13:34.209Z,50.72
2023-02-23T08:16:07.525Z,47.90
2023-02-23T08:18:40.380Z,53.20
2023-02-23T08:21:13.334Z,52.03
2023-02-23T08:23:46.465Z,50.65
2023-02-23T08:26:20.756Z,51.13
2023-02-23T08:28:55.793Z,51.40
2023-02-23T08:31:28.877Z,52.65
2023-02-23T08:34:02.422Z,49.83
2023-02-23T08:36:35.224Z,49.60
2023-02-23T08:39:10.161Z,50.10
2023-02-23T08:41:44.736Z,47.42
2023-02-23T08:44:17.587Z,44.30
2023-02-23T08:46:50.780Z,39.97
2023-02-23T08:49:24.146Z,37.17
2023-02-23T08:51:56.902Z,38.88
2023-02-23T08:54:30.554Z,36.78
2023-02-23T08:57:05.122Z,36.20
2023-02-23T08:59:39.192Z,32.65
2023-02-23T09:02:14.475Z,36.40
2023-02-23T09:04:47.363Z,32.88
2023-02-23T09:07:20.486Z,26.75
2023-02-23T09:09:56.839Z,23.98
2023-02-23T09:12:38.025Z,24.17
2023-02-23T09:15:14.948Z,24.27
2023-02-23T09:17:48.948Z,20.25
2023-02-23T09:20:27.621Z,24.83
2023-02-23T09:23:01.161Z,20.20
2023-02-23T09:25:34.196Z,20.65
2023-02-23T09:28:08.382Z,19.92
2023-02-23T09:30:41.973Z,22.73
2023-02-23T09:33:15.015Z,17.63
2023-02-23T09:35:48.229Z,18.08
2023-02-23T09:38:21.225Z,20.67
2023-02-23T09:40:56.383Z,18.13
2023-02-23T09:43:41.027Z,19.90
2023-02-23T09:46:29.725Z,20.63
2023-02-23T09:49:04.829Z,18.67
2023-02-23T09:51:42.544Z,19.00
2023-02-23T09:54:17.763Z,18.77
2023-02-23T09:56:53.391Z,20.33
2023-02-23T09:59:28.920Z,19.23
2023-02-23T10:02:12.053Z,21.92
2023-02-23T10:04:48.164Z,20.95
2023-02-23T10:07:27.445Z,16.65
2023-02-23T10:10:14.962Z,19.08
2023-02-23T10:12:56.434Z,18.38
2023-02-23T10:15:38.281Z,17.50
2023-02-23T10:18:28.662Z,25.70
2023-02-23T10:21:10.706Z,20.40
2023-02-23T10:23:49.481Z,22.00
2023-02-23T10:26:25.166Z,21.98
2023-02-23T10:29:00.030Z,21.20
2023-02-23T10:31:41.138Z,18.98
2023-02-23T10:34:16.957Z,22.70
2023-02-23T10:36:58.607Z,23.80
2023-02-23T10:39:32.850Z,24.63
2023-02-23T10:42:12.273Z,21.73
2023-02-23T10:44:46.836Z,24.48
2023-02-23T10:47:24.280Z,21.92
2023-02-23T10:49:58.480Z,19.70
2023-02-23T10:52:41.516Z,21.88
2023-02-23T10:55:24.577Z,20.02
2023-02-23T10:58:09.640Z,19.58
2023-02-23T11:00:42.623Z,19.92
2023-02-23T11:03:26.853Z,20.27
2023-02-23T11:06:00.206Z,22.23
2023-02-23T11:08:34.934Z,18.60
2023-02-23T11:11:20.085Z,17.45
2023-02-23T11:13:54.090Z,18.23
2023-02-23T11:16:31.012Z,20.55
2023-02-23T11:19:07.271Z,19.60
2023-02-23T11:21:41.387Z,19.88
2023-02-23T11:24:22.009Z,18.23
2023-02-23T11:26:58.115Z,22.30
2023-02-23T11:29:35.648Z,21.70
2023-02-23T11:32:14.210Z,22.77
2023-02-23T11:34:50.229Z,23.25
2023-02-23T11:37:26.321Z,25.45
2023-02-23T11:40:01.947Z,23.33
2023-02-23T11:42:35.291Z,26.13
2023-02-23T11:45:16.377Z,26.83
2023-02-23T11:47:52.264Z,28.15
2023-02-23T11:50:29.277Z,22.52
2023-02-23T11:53:06.416Z,22.52
2023-02-23T11:55:40.104Z,23.85
2023-02-23T11:58:24.668Z,23.20
2023-02-23T12:01:00.144Z,22.13
2023-02-23T12:03:35.421Z,22.42
2023-02-23T12:06:11.066Z,21.17
2023-02-23T12:08:48.746Z,16.23
2023-02-23T12:11:28.670Z,20.23
2023-02-23T12:14:12.635Z,17.13
2023-02-23T12:16:52.022Z,13.80
2023-02-23T12:19:29.276Z,15.05
2023-02-23T12:22:08.216Z,20.95
2023-02-23T12:24:45.649Z,17.45
2023-02-23T12:27:25.781Z,18.10
2023-02-23T12:30:11.094Z,14.13
2023-02-23T12:32:49.601Z,13.98
2023-02-23T12:35:29.558Z,11.73
2023-02-23T12:38:14.984Z,14.02
2023-02-23T12:40:50.456Z,12.80
2023-02-23T12:43:33.961Z,11.18
2023-02-23T12:46:12.609Z,14.48
2023-02-23T12:48:52.852Z,13.52
2023-02-23T12:51:32.170Z,13.02
2023-02-23T12:54:07.051Z,13.55
2023-02-23T12:56:52.000Z,16.30
2023-02-23T12:59:57.677Z,14.48
2023-02-23T13:02:34.452Z,14.40
2023-02-23T13:05:28.491Z,13.95
2023-02-23T13:08:13.998Z,15.77
2023-02-23T13:10:56.697Z,15.70
2023-02-23T13:13:39.505Z,14.30
2023-02-23T13:16:22.669Z,13.90
2023-02-23T13:19:06.700Z,15.23
2023-02-23T13:21:46.399Z,15.20
2023-02-23T13:24:21.650Z,15.68
2023-02-23T13:27:03.102Z,15.75
2023-02-23T13:29:39.930Z,16.05
2023-02-23T13:32:15.021Z,19.33
2023-02-23T13:34:54.646Z,17.42
2023-02-23T13:37:32.416Z,18.83
2023-02-23T13:40:20.212Z,17.55
2023-02-23T13:43:07.793Z,18.70
2023-02-23T13:45:58.610Z,17.83
2023-02-23T13:48:56.242Z,17.75
2023-02-23T13:51:39.362Z,18.50
2023-02-23T13:54:25.442Z,16.15
2023-02-23T13:57:01.374Z,15.88
2023-02-23T13:59:43.728Z,17.55
2023-02-23T14:02:36.493Z,17.63
2023-02-23T14:05:19.670Z,15.60
2023-02-23T14:07:55.519Z,15.30
2023-02-23T14:10:30.872Z,15.73
2023-02-23T14:13:25.522Z,14.70
2023-02-23T14:16:20.113Z,20.33
2023-02-23T14:19:13.279Z,16.20
2023-02-23T14:21:52.256Z,15.82
2023-02-23T14:24:26.339Z,17.05
2023-02-23T14:27:34.157Z,19.20
2023-02-23T14:30:27.979Z,17.10
2023-02-23T14:33:21.246Z,15.20
2023-02-23T14:35:56.062Z,13.05
2023-02-23T14:38:47.129Z,19.48
2023-02-23T14:41:23.232Z,15.70
2023-02-23T14:44:00.034Z,17.42
2023-02-23T14:46:35.041Z,16.02
2023-02-23T14:49:16.518Z,16.60
2023-02-23T14:51:52.419Z,16.30
2023-02-23T14:54:28.509Z,16.40
2023-02-23T14:57:03.863Z,18.08
2023-02-23T14:59:39.301Z,15.20
2023-02-23T15:02:13.738Z,22.08
2023-02-23T15:04:48.155Z,13.98
2023-02-23T15:07:27.980Z,13.52
2023-02-23T15:10:02.492Z,18.73
2023-02-23T15:12:38.808Z,17.75
2023-02-23T15:15:20.019Z,14.98
2023-02-23T15:17:55.978Z,15.25
2023-02-23T15:23:07.361Z,13.60
2023-02-23T15:25:42.128Z,15.20
2023-02-23T15:28:23.412Z,14.75
2023-02-23T15:31:00.589Z,15.23
2023-02-23T15:33:34.213Z,13.30
2023-02-23T15:36:15.951Z,17.92
2023-02-23T15:38:51.528Z,16.90
2023-02-23T15:41:30.069Z,15.27
2023-02-23T15:44:11.087Z,16.10
2023-02-23T15:46:46.319Z,14.73
2023-02-23T15:49:21.935Z,15.52
2023-02-23T15:52:00.504Z,13.50
2023-02-23T15:54:37.792Z,15.48
2023-02-23T15:57:22.633Z,16.23
2023-02-23T15:59:59.344Z,17.17
2023-02-23T16:02:32.214Z,18.10
2023-02-23T16:05:20.334Z,16.00
2023-02-23T16:08:06.523Z,21.35
2023-02-23T16:10:46.122Z,18.60
2023-02-23T16:13:23.313Z,17.30
2023-02-23T16:15:57.121Z,21.45
2023-02-23T16:18:40.838Z,18.52
2023-02-23T16:21:19.192Z,16.90
2023-02-23T16:23:55.184Z,17.30
2023-02-23T16:26:32.507Z,19.55
2023-02-23T16:29:05.917Z,18.02
2023-02-23T16:31:44.749Z,18.02
2023-02-23T16:34:27.842Z,18.90
2023-02-23T16:37:03.186Z,20.55
2023-02-23T16:39:37.400Z,15.05
2023-02-23T16:42:20.405Z,17.55
2023-02-23T16:44:53.354Z,15.95
2023-02-23T16:47:36.530Z,17.85
2023-02-23T16:50:20.096Z,18.65
2023-02-23T16:52:54.416Z,21.08
2023-02-23T16:55:30.548Z,21.05
2023-02-23T16:58:04.964Z,19.67
2023-02-23T17:00:38.256Z,19.92
2023-02-23T17:03:24.889Z,22.95
2023-02-23T17:05:58.093Z,20.15
2023-02-23T17:08:31.988Z,19.35
2023-02-23T17:11:06.974Z,21.95
2023-02-23T17:13:40.089Z,21.48
2023-02-23T17:16:14.759Z,27.30
2023-02-23T17:18:48.925Z,23.58
2023-02-23T17:21:23.868Z,29.05
2023-02-23T17:24:02.897Z,22.77
2023-02-23T17:26:37.146Z,24.02
2023-02-23T17:29:21.602Z,23.38
2023-02-23T17:31:54.542Z,21.90
2023-02-23T17:34:28.253Z,24.90
2023-02-23T17:37:01.547Z,20.92
2023-02-23T17:39:37.370Z,22.00
2023-02-23T17:42:11.809Z,20.25
2023-02-23T17:44:45.570Z,18.85
2023-02-23T17:47:19.065Z,20.98
2023-02-23T17:49:52.211Z,22.60
2023-02-23T17:52:25.181Z,22.67
2023-02-23T17:55:00.580Z,44.97
2023-02-23T17:57:37.024Z,43.17
2023-02-23T18:00:13.616Z,66.72
2023-02-23T18:02:54.489Z,51.47
2023-02-23T18:05:28.300Z,43.58
2023-02-23T18:08:03.610Z,42.13
2023-02-23T18:10:36.863Z,39.83
2023-02-23T18:13:11.100Z,44.90
2023-02-23T18:15:48.436Z,41.80
2023-02-23T18:18:22.482Z,39.58
2023-02-23T18:20:57.178Z,30.60
2023-02-23T18:23:32.828Z,35.15
2023-02-23T18:26:07.495Z,25.92
2023-02-23T18:28:44.487Z,24.05
2023-02-23T18:31:21.060Z,22.60
2023-02-23T18:33:54.685Z,23.67
2023-02-23T18:36:29.982Z,27.88
2023-02-23T18:39:06.285Z,23.23
2023-02-23T18:41:39.367Z,24.83
2023-02-23T18:44:15.653Z,25.35
2023-02-23T18:46:48.742Z,29.77
2023-02-23T18:49:23.626Z,27.92
2023-02-23T18:51:56.604Z,25.00
2023-02-23T18:54:29.647Z,26.95
2023-02-23T18:57:03.025Z,22.45
2023-02-23T18:59:37.192Z,31.83
2023-02-23T19:02:11.487Z,31.73
2023-02-23T19:04:45.212Z,26.67
2023-02-23T19:07:19.128Z,26.02
2023-02-23T19:09:52.322Z,26.92
2023-02-23T19:12:25.157Z,26.05
2023-02-23T19:14:59.810Z,24.88
2023-02-23T19:17:34.832Z,26.10
2023-02-23T19:20:13.640Z,29.50
2023-02-23T19:22:47.078Z,33.78
2023-02-23T19:25:19.947Z,29.38
2023-02-23T19:27:54.804Z,30.92
2023-02-23T19:30:29.281Z,34.75
2023-02-23T19:33:02.714Z,32.78
2023-02-23T19:35:42.034Z,31.73
2023-02-23T19:38:20.123Z,28.88
2023-02-23T19:40:53.653Z,31.70
2023-02-23T19:43:26.909Z,31.15
2023-02-23T19:46:05.636Z,32.08
2023-02-23T19:48:39.041Z,33.03
2023-02-23T19:51:12.458Z,39.22
2023-02-23T19:53:45.465Z,38.03
2023-02-23T19:56:18.716Z,35.75
2023-02-23T19:58:51.668Z,30.75
2023-02-23T20:01:27.636Z,28.75
2023-02-23T20:04:06.664Z,30.67
2023-02-23T20:06:44.692Z,33.30
2023-02-23T20:09:18.080Z,36.58
2023-02-23T20:11:51.234Z,34.90
2023-02-23T20:14:24.968Z,31.08
2023-02-23T20:16:59.204Z,34.05
2023-02-23T20:19:32.118Z,30.77
2023-02-23T20:22:09.039Z,34.40
2023-02-23T20:24:41.839Z,31.58
2023-02-23T20:27:14.639Z,34.75
2023-02-23T20:29:48.062Z,32.60
2023-02-23T20:32:22.356Z,28.63
2023-02-23T20:34:55.862Z,32.15
2023-02-23T20:37:29.112Z,32.65
2023-02-23T20:40:01.939Z,30.98
2023-02-23T20:42:34.740Z,28.70
2023-02-23T20:45:08.520Z,32.50
2023-02-23T20:47:43.041Z,31.55
2023-02-23T20:50:16.280Z,32.40
2023-02-23T20:52:49.989Z,36.42
2023-02-23T20:55:26.330Z,34.28
2023-02-23T20:57:59.364Z,38.97
2023-02-23T21:00:33.076Z,33.28
2023-02-23T21:03:07.802Z,38.28
2023-02-23T21:05:41.827Z,31.85
2023-02-23T21:08:15.037Z,30.33
2023-02-23T21:10:50.457Z,30.33
2023-02-23T21:14:06.714Z,28.15
2023-02-23T21:16:51.773Z,24.58
2023-02-23T21:19:26.846Z,26.33
2023-02-23T21:22:16.486Z,22.95
2023-02-23T21:24:49.442Z,27.53
2023-02-23T21:30:10.798Z,22.88
2023-02-23T21:32:43.954Z,27.27
2023-02-23T21:35:19.908Z,25.13
2023-02-23T21:37:53.750Z,28.50
2023-02-23T21:40:27.020Z,26.27
2023-02-23T21:43:01.251Z,31.25
2023-02-23T21:45:34.173Z,28.50
2023-02-23T21:48:07.108Z,28.02
2023-02-23T21:50:41.862Z,25.60
2023-02-23T21:53:15.024Z,30.88
2023-02-23T21:55:47.980Z,27.02
2023-02-23T21:58:21.529Z,29.70
2023-02-23T22:00:55.394Z,27.42
2023-02-23T22:03:29.383Z,26.80
2023-02-23T22:06:03.618Z,28.08
2023-02-23T22:08:36.577Z,30.50
2023-02-23T22:11:10.790Z,28.77
2023-02-23T22:13:43.655Z,39.20
2023-02-23T22:16:19.797Z,33.35
2023-02-23T22:18:52.794Z,34.30
2023-02-23T22:21:27.377Z,26.35
2023-02-23T22:24:01.215Z,31.98
2023-02-23T22:26:35.998Z,27.00
2023-02-23T22:29:10.923Z,26.13
2023-02-23T22:31:43.818Z,26.23
2023-02-23T22:34:18.324Z,24.85
2023-02-23T22:36:52.542Z,25.23
2023-02-23T22:39:25.319Z,30.80
2023-02-23T22:41:59.898Z,25.80
2023-02-23T22:44:32.742Z,26.40
2023-02-23T22:47:06.001Z,27.35
2023-02-23T22:49:38.860Z,25.08
2023-02-23T22:52:13.440Z,36.13
2023-02-23T22:54:48.139Z,34.83
2023-02-23T22:57:20.948Z,37.75
2023-02-23T23:00:00.010Z,33.97
2023-02-23T23:02:33.581Z,28.42
2023-02-23T23:05:08.233Z,31.33
2023-02-23T23:07:46.523Z,30.73
2023-02-23T23:10:19.858Z,29.67
2023-02-23T23:12:53.051Z,33.58
2023-02-23T23:15:25.879Z,27.85
2023-02-23T23:17:58.711Z,31.05
2023-02-23T23:20:32.030Z,32.97
2023-02-23T23:23:07.122Z,34.15
2023-02-23T23:25:42.400Z,31.42
2023-02-23T23:28:15.485Z,34.38
2023-02-23T23:30:52.360Z,30.10
2023-02-23T23:33:26.922Z,31.42
2023-02-23T23:36:02.489Z,34.35
2023-02-23T23:38:38.561Z,31.30
2023-02-23T23:41:13.646Z,37.25
2023-02-23T23:43:48.615Z,32.47
2023-02-23T23:46:24.484Z,34.28
2023-02-23T23:49:02.117Z,30.23
2023-02-23T23:51:39.033Z,30.95
2023-02-23T23:54:15.435Z,27.80
2023-02-23T23:56:49.608Z,31.38
2023-02-23T23:59:25.083Z,32.42
